Nasa Shuttle Landing Facility Information

FAA: TTS - ICAO: KTTS

Nasa Shuttle Landing Facility (Airport) Location

State Florida
County Brevard
City Titusville
Nasa Shuttle Landing Facility (Airport) is 6 miles east of Titusville, FL.
Latitude 28-36-53.6000N
Longitude 080-41-39.7000W
Elevation 8ft

Nasa Shuttle Landing Facility METARs

METAR KTTS 190056Z AUTO 36003KT 10SM CLR 07/05 A3022 RMK AO2 SLP238 T00660051 $
Altimeter 30.22"
Temperature 6.6°C (43.9°F)
Wind 360° at 3KT
Clouds Skies are clear.
Visibility 10.0mi
Time observed: 2022-01-19T00:56:00Z

Nasa Shuttle Landing Facility (Airport) Details

Status Operational
Activation July 1976
Ownership Public
Usage Private
Chart JACKSONVILLE
ATC on-site Yes
Beacon schedule sunset-sunrise
Beacon color clear green

Nasa Shuttle Landing Facility (Airport) Contacts

Owner NATL AERONAUTICS & SPACE ADM
Owner address N/A, KENNEDY SPACE CNTR, FL 32815
Owner phone 321-867-2100
Manager TOM BOSELY
Manager address 105 N AIRPORT RD, TAVERNIER, FL 33070
Manager phone (305) 393-2710

Nasa Shuttle Landing Facility Radio Frequencies

Nasa Shuttle Landing Facility (Airport) Radio Frequencies

UNICOM N/A
Common traffic advisory frequency (CTAF) 128.55